createdAt,value
2023-01-15T00:01:52.762Z,0.30
2023-01-15T00:04:19.519Z,0.30
2023-01-15T00:06:46.219Z,0.25
2023-01-15T00:09:16.531Z,0.30
2023-01-15T00:14:10.322Z,0.20
2023-01-15T00:16:37.058Z,0.25
2023-01-15T00:19:04.672Z,0.30
2023-01-15T00:21:31.611Z,0.25
2023-01-15T00:24:16.758Z,0.20
2023-01-15T00:27:02.879Z,0.50
2023-01-15T00:29:29.839Z,0.28
2023-01-15T00:32:05.392Z,0.17
2023-01-15T00:34:32.649Z,0.25
2023-01-15T00:36:59.658Z,0.20
2023-01-15T00:39:26.847Z,0.30
2023-01-15T00:41:54.323Z,0.20
2023-01-15T00:44:21.313Z,0.20
2023-01-15T00:46:48.524Z,0.20
2023-01-15T00:49:15.616Z,0.20
2023-01-15T00:51:42.281Z,0.40
2023-01-15T00:54:09.160Z,0.20
2023-01-15T00:56:36.360Z,0.20
2023-01-15T00:59:05.047Z,0.20
2023-01-15T01:01:32.204Z,0.28
2023-01-15T01:03:58.943Z,0.22
2023-01-15T01:06:25.831Z,0.20
2023-01-15T01:08:52.431Z,0.20
2023-01-15T01:11:26.160Z,0.30
2023-01-15T01:13:56.223Z,0.30
2023-01-15T01:16:27.306Z,0.20
2023-01-15T01:18:54.535Z,0.28
2023-01-15T01:21:21.759Z,0.10
2023-01-15T01:23:48.496Z,0.20
2023-01-15T01:26:15.415Z,0.22
2023-01-15T01:28:42.878Z,0.30
2023-01-15T01:31:10.156Z,0.30
2023-01-15T01:33:37.076Z,0.20
2023-01-15T01:36:03.985Z,0.28
2023-01-15T01:38:30.687Z,0.10
2023-01-15T01:40:57.381Z,0.20
2023-01-15T01:43:26.712Z,0.10
2023-01-15T01:45:53.885Z,0.20
2023-01-15T01:48:26.633Z,0.20
2023-01-15T01:50:56.809Z,0.20
2023-01-15T01:53:28.563Z,0.30
2023-01-15T01:55:57.200Z,0.20
2023-01-15T01:58:27.188Z,0.20
2023-01-15T02:00:54.071Z,0.10
2023-01-15T02:03:23.354Z,0.20
2023-01-15T02:05:54.145Z,0.20
2023-01-15T02:08:22.094Z,0.30
2023-01-15T02:10:52.612Z,0.10
2023-01-15T02:13:52.874Z,0.10
2023-01-15T02:16:37.196Z,0.15
2023-01-15T02:19:38.882Z,0.30
2023-01-15T02:22:25.766Z,0.15
2023-01-15T02:24:58.243Z,0.25
2023-01-15T02:27:25.920Z,0.20
2023-01-15T02:30:12.874Z,0.30
2023-01-15T02:32:51.865Z,0.10
2023-01-15T02:35:25.325Z,0.20
2023-01-15T02:37:55.278Z,0.20
2023-01-15T02:40:24.430Z,0.20
2023-01-15T02:42:51.105Z,0.10
2023-01-15T02:45:24.292Z,0.20
2023-01-15T02:47:54.393Z,0.10
2023-01-15T02:50:25.960Z,0.17
2023-01-15T02:52:58.236Z,0.20
2023-01-15T02:55:30.604Z,0.10
2023-01-15T02:58:01.609Z,0.25
2023-01-15T03:00:31.796Z,0.20
2023-01-15T03:03:11.125Z,0.10
2023-01-15T03:05:48.697Z,0.20
2023-01-15T03:08:15.481Z,0.20
2023-01-15T03:11:14.235Z,0.20
2023-01-15T03:13:49.126Z,0.32
2023-01-15T03:16:38.082Z,0.25
2023-01-15T03:19:08.161Z,0.30
2023-01-15T03:21:59.027Z,0.30
2023-01-15T03:24:33.385Z,0.22
2023-01-15T03:27:01.487Z,0.20
2023-01-15T03:29:33.827Z,0.20
2023-01-15T03:32:01.100Z,0.20
2023-01-15T03:34:50.350Z,0.20
2023-01-15T03:37:18.301Z,0.20
2023-01-15T03:39:45.071Z,0.30
2023-01-15T03:42:14.679Z,0.20
2023-01-15T03:45:04.903Z,0.20
2023-01-15T03:47:53.465Z,0.30
2023-01-15T03:50:25.240Z,0.20
2023-01-15T03:52:54.807Z,0.20
2023-01-15T03:55:32.827Z,0.30
2023-01-15T03:58:07.680Z,0.20
2023-01-15T04:00:38.413Z,0.17
2023-01-15T04:03:09.446Z,0.20
2023-01-15T04:05:38.036Z,0.10
2023-01-15T04:08:05.788Z,0.20
2023-01-15T04:10:32.432Z,0.20
2023-01-15T04:12:59.292Z,0.10
2023-01-15T04:15:26.008Z,0.10
2023-01-15T04:17:52.698Z,0.20
2023-01-15T04:20:19.433Z,0.10
2023-01-15T04:22:46.103Z,0.20
2023-01-15T04:25:12.925Z,0.30
2023-01-15T04:27:39.540Z,0.20
2023-01-15T04:30:06.857Z,0.20
2023-01-15T04:32:33.452Z,0.30
2023-01-15T04:35:00.093Z,0.20
2023-01-15T04:37:26.756Z,0.20
2023-01-15T04:39:53.387Z,0.20
2023-01-15T04:42:38.663Z,0.20
2023-01-15T04:45:05.862Z,0.28
2023-01-15T04:47:32.505Z,0.20
2023-01-15T04:49:59.133Z,0.40
2023-01-15T04:52:25.777Z,0.20
2023-01-15T04:54:54.913Z,0.30
2023-01-15T04:57:21.609Z,0.20
2023-01-15T04:59:48.269Z,0.20
2023-01-15T05:02:15.585Z,0.30
2023-01-15T05:04:42.424Z,0.30
2023-01-15T05:07:10.256Z,0.60
2023-01-15T05:09:36.971Z,0.20
2023-01-15T05:12:03.782Z,0.20
2023-01-15T05:14:30.445Z,0.30
2023-01-15T05:16:57.082Z,0.20
2023-01-15T05:19:23.724Z,0.20
2023-01-15T05:21:51.393Z,0.20
2023-01-15T05:24:19.213Z,0.63
2023-01-15T05:26:46.002Z,0.40
2023-01-15T05:29:13.215Z,0.20
2023-01-15T05:31:41.805Z,0.30
2023-01-15T05:34:09.601Z,0.20
2023-01-15T05:36:37.560Z,0.40
2023-01-15T05:39:04.424Z,0.25
2023-01-15T05:41:49.452Z,0.40
2023-01-15T05:44:19.322Z,0.30
2023-01-15T05:46:47.091Z,0.30
2023-01-15T05:49:17.219Z,0.55
2023-01-15T05:51:44.668Z,0.17
2023-01-15T05:54:17.384Z,0.30
2023-01-15T05:56:45.585Z,0.30
2023-01-15T05:59:13.419Z,0.55
2023-01-15T06:01:40.685Z,0.40
2023-01-15T06:04:07.850Z,0.30
2023-01-15T06:06:35.742Z,0.40
2023-01-15T06:09:04.394Z,0.60
2023-01-15T06:11:31.385Z,0.50
2023-01-15T06:13:58.335Z,0.40
2023-01-15T06:16:25.106Z,0.20
2023-01-15T06:18:51.797Z,0.30
2023-01-15T06:21:18.847Z,0.40
2023-01-15T06:23:45.556Z,0.30
2023-01-15T06:26:15.041Z,0.30
2023-01-15T06:28:42.434Z,0.40
2023-01-15T06:31:11.628Z,0.30
2023-01-15T06:33:38.745Z,0.30
2023-01-15T06:36:07.574Z,0.30
2023-01-15T06:38:34.671Z,0.25
2023-01-15T06:41:03.622Z,0.40
2023-01-15T06:43:48.829Z,0.50
2023-01-15T06:46:35.955Z,0.20
2023-01-15T06:49:02.651Z,0.30
2023-01-15T06:51:31.160Z,0.30
2023-01-15T06:53:58.028Z,0.30
2023-01-15T06:56:24.672Z,0.20
2023-01-15T06:58:51.310Z,0.30
2023-01-15T07:01:18.024Z,0.30
2023-01-15T07:03:44.777Z,0.20
2023-01-15T07:06:13.460Z,0.30
2023-01-15T07:08:40.555Z,0.30
2023-01-15T07:11:09.694Z,0.40
2023-01-15T07:13:37.098Z,0.47
2023-01-15T07:16:04.773Z,0.30
2023-01-15T07:18:33.349Z,0.30
2023-01-15T07:21:00.619Z,0.30
2023-01-15T07:23:28.129Z,0.60
2023-01-15T07:25:55.625Z,0.95
2023-01-15T07:28:24.295Z,0.70
2023-01-15T07:30:51.252Z,0.20
2023-01-15T07:33:17.900Z,0.50
2023-01-15T07:35:44.574Z,0.30
2023-01-15T07:38:11.304Z,0.47
2023-01-15T07:40:38.874Z,0.20
2023-01-15T07:43:23.994Z,0.20
2023-01-15T07:46:09.447Z,0.20
2023-01-15T07:48:54.910Z,0.20
2023-01-15T07:51:21.563Z,0.20
2023-01-15T07:53:48.195Z,0.40
2023-01-15T07:56:15.361Z,0.60
2023-01-15T07:58:42.029Z,0.47
2023-01-15T08:01:08.933Z,0.35
2023-01-15T08:03:35.648Z,0.30
2023-01-15T08:06:02.360Z,0.38
2023-01-15T08:08:29.071Z,0.40
2023-01-15T08:11:14.354Z,0.40
2023-01-15T08:13:59.730Z,0.50
2023-01-15T08:16:26.358Z,0.43
2023-01-15T08:18:52.997Z,0.30
2023-01-15T08:21:20.103Z,0.32
2023-01-15T08:23:47.630Z,0.40
2023-01-15T08:26:14.279Z,0.40
2023-01-15T08:28:40.979Z,0.20
2023-01-15T08:31:08.582Z,0.47
2023-01-15T08:33:35.364Z,0.40
2023-01-15T08:36:02.330Z,0.60
2023-01-15T08:38:29.156Z,0.60
2023-01-15T08:40:59.180Z,0.50
2023-01-15T08:43:27.325Z,0.50
2023-01-15T08:45:58.726Z,0.50
2023-01-15T08:48:26.053Z,0.35
2023-01-15T08:50:52.979Z,0.50
2023-01-15T08:53:20.116Z,0.38
2023-01-15T08:55:47.783Z,0.40
2023-01-15T08:58:15.586Z,0.50
2023-01-15T09:00:43.468Z,0.40
2023-01-15T09:03:10.164Z,0.60
2023-01-15T09:05:37.858Z,0.95
2023-01-15T09:08:05.880Z,0.88
2023-01-15T09:10:33.627Z,1.00
2023-01-15T09:13:01.434Z,1.20
2023-01-15T09:15:29.798Z,1.13
2023-01-15T09:17:56.772Z,1.20
2023-01-15T09:20:23.983Z,0.60
2023-01-15T09:22:51.359Z,2.33
2023-01-15T09:25:19.509Z,1.02
2023-01-15T09:27:46.982Z,1.17
2023-01-15T09:30:18.937Z,1.00
2023-01-15T09:32:45.614Z,0.60
2023-01-15T09:35:12.517Z,0.50
2023-01-15T09:37:39.351Z,0.95
2023-01-15T09:40:09.143Z,0.50
2023-01-15T09:42:48.001Z,0.70
2023-01-15T09:45:17.480Z,0.47
2023-01-15T09:48:12.411Z,0.50
2023-01-15T09:50:53.848Z,0.50
2023-01-15T09:53:55.944Z,0.60
2023-01-15T09:56:25.932Z,0.50
2023-01-15T09:58:53.693Z,0.40
2023-01-15T10:01:29.545Z,0.47
2023-01-15T10:04:26.065Z,0.90
2023-01-15T10:07:02.830Z,0.90
2023-01-15T10:09:37.399Z,0.60
2023-01-15T10:12:35.878Z,1.70
2023-01-15T10:15:22.322Z,0.80
2023-01-15T10:17:57.790Z,1.00
2023-01-15T10:20:45.627Z,1.55
2023-01-15T10:23:27.683Z,0.88
2023-01-15T10:26:18.767Z,0.80
2023-01-15T10:29:06.921Z,0.90
2023-01-15T10:31:45.610Z,1.95
2023-01-15T10:34:39.817Z,2.08
2023-01-15T10:37:14.711Z,0.90
2023-01-15T10:40:05.503Z,0.80
2023-01-15T10:43:21.224Z,0.63
2023-01-15T10:45:59.599Z,0.90
2023-01-15T10:48:46.563Z,1.05
2023-01-15T10:51:42.473Z,0.82
2023-01-15T10:54:41.121Z,0.70
2023-01-15T10:57:28.176Z,0.80
2023-01-15T11:00:00.151Z,0.90
2023-01-15T11:02:52.129Z,0.80
2023-01-15T11:05:21.191Z,0.98
2023-01-15T11:08:16.454Z,0.90
2023-01-15T11:10:40.672Z,0.82
2023-01-15T11:13:39.417Z,0.70
2023-01-15T11:16:31.990Z,0.82
2023-01-15T11:19:22.050Z,0.52
2023-01-15T11:21:50.010Z,0.70
2023-01-15T11:24:18.256Z,0.70
2023-01-15T11:26:52.760Z,0.80
2023-01-15T11:29:33.718Z,0.80
2023-01-15T11:32:00.447Z,0.80
2023-01-15T11:34:27.032Z,0.95
2023-01-15T11:37:05.168Z,0.60
2023-01-15T11:39:32.541Z,1.10
2023-01-15T11:42:20.076Z,1.02
2023-01-15T11:45:17.652Z,0.68
2023-01-15T11:48:13.321Z,0.70
2023-01-15T11:50:53.270Z,0.80
2023-01-15T11:53:26.879Z,1.60
2023-01-15T11:56:00.761Z,1.20
2023-01-15T11:58:31.764Z,0.75
2023-01-15T12:00:59.573Z,0.77
2023-01-15T12:03:30.078Z,0.70
2023-01-15T12:05:56.686Z,0.60
2023-01-15T12:08:52.669Z,0.95
2023-01-15T12:11:38.625Z,0.90
2023-01-15T12:14:51.881Z,0.50
2023-01-15T12:17:34.062Z,0.65
2023-01-15T12:20:07.453Z,0.68
2023-01-15T12:23:00.686Z,0.73
2023-01-15T12:25:45.851Z,0.70
2023-01-15T12:28:15.036Z,0.50
2023-01-15T12:30:48.756Z,0.50
2023-01-15T12:33:36.614Z,0.65
2023-01-15T12:36:14.475Z,0.50
2023-01-15T12:38:52.006Z,0.68
2023-01-15T12:41:26.827Z,0.63
2023-01-15T12:44:27.064Z,0.73
2023-01-15T12:46:53.825Z,0.47
2023-01-15T12:49:49.529Z,0.50
2023-01-15T12:52:34.190Z,0.50
2023-01-15T12:55:14.465Z,0.70
2023-01-15T13:00:35.446Z,1.65
2023-01-15T13:03:26.720Z,1.20
2023-01-15T13:06:00.152Z,0.70
2023-01-15T13:08:38.059Z,0.63
2023-01-15T13:11:05.047Z,0.43
2023-01-15T13:13:35.525Z,0.45
2023-01-15T13:16:24.152Z,0.60
2023-01-15T13:19:28.289Z,0.80
2023-01-15T13:21:58.716Z,0.57
2023-01-15T13:24:54.053Z,0.50
2023-01-15T13:27:43.061Z,0.50
2023-01-15T13:30:22.077Z,0.70
2023-01-15T13:32:59.282Z,1.05
2023-01-15T13:35:45.035Z,0.52
2023-01-15T13:38:18.552Z,0.93
2023-01-15T13:40:51.920Z,0.75
2023-01-15T13:43:39.824Z,0.50
2023-01-15T13:46:10.586Z,0.60
2023-01-15T13:48:45.623Z,1.00
2023-01-15T13:51:27.516Z,0.60
2023-01-15T13:53:56.132Z,0.38
2023-01-15T13:56:32.258Z,0.55
2023-01-15T13:59:05.317Z,0.60
2023-01-15T14:01:34.331Z,0.55
2023-01-15T14:04:05.911Z,0.93
2023-01-15T14:06:50.089Z,0.50
2023-01-15T14:09:22.771Z,0.30
2023-01-15T14:12:01.180Z,0.40
2023-01-15T14:15:05.401Z,0.77
2023-01-15T14:17:52.426Z,0.52
2023-01-15T14:20:38.980Z,1.00
2023-01-15T14:23:27.263Z,0.85
2023-01-15T14:25:56.781Z,0.73
2023-01-15T14:28:45.065Z,0.98
2023-01-15T14:31:21.187Z,0.63
2023-01-15T14:34:16.225Z,2.45
2023-01-15T14:36:54.197Z,0.60
2023-01-15T14:39:48.832Z,1.30
2023-01-15T14:42:39.937Z,0.68
2023-01-15T14:45:23.957Z,1.33
2023-01-15T14:47:53.707Z,1.70
2023-01-15T14:50:38.634Z,1.42
2023-01-15T14:53:11.208Z,0.80
2023-01-15T14:55:59.141Z,0.88
2023-01-15T14:58:37.821Z,0.80
2023-01-15T15:01:41.614Z,0.85
2023-01-15T15:04:38.812Z,0.50
2023-01-15T15:07:22.493Z,0.70
2023-01-15T15:09:57.822Z,0.77
2023-01-15T15:12:44.567Z,0.80
2023-01-15T15:15:14.469Z,1.77
2023-01-15T15:17:59.674Z,1.25
2023-01-15T15:20:42.845Z,0.77
2023-01-15T15:23:42.383Z,0.95
2023-01-15T15:26:21.007Z,0.52
2023-01-15T15:29:09.588Z,0.65
2023-01-15T15:31:40.611Z,0.82
2023-01-15T15:34:12.253Z,0.70
2023-01-15T15:36:39.625Z,0.88
2023-01-15T15:39:35.524Z,0.80
2023-01-15T15:42:24.888Z,0.90
2023-01-15T15:45:14.313Z,0.68
2023-01-15T15:48:01.330Z,0.50
2023-01-15T15:50:32.949Z,0.80
2023-01-15T15:53:04.265Z,0.70
2023-01-15T15:55:41.013Z,0.60
2023-01-15T15:58:11.818Z,0.80
2023-01-15T16:00:44.332Z,0.77
2023-01-15T16:03:23.763Z,0.77
2023-01-15T16:06:07.611Z,0.47
2023-01-15T16:08:36.018Z,0.63
2023-01-15T16:11:06.515Z,1.33
2023-01-15T16:13:38.130Z,0.60
2023-01-15T16:16:08.074Z,0.80
2023-01-15T16:18:44.630Z,0.93
2023-01-15T16:21:17.919Z,0.60
2023-01-15T16:23:58.967Z,0.77
2023-01-15T16:26:45.732Z,1.20
2023-01-15T16:29:33.546Z,0.88
2023-01-15T16:32:01.148Z,0.63
2023-01-15T16:34:33.034Z,0.70
2023-01-15T16:37:01.866Z,1.20
2023-01-15T16:39:45.206Z,0.65
2023-01-15T16:42:25.089Z,0.80
2023-01-15T16:44:55.639Z,1.08
2023-01-15T16:47:31.786Z,0.70
2023-01-15T16:50:25.660Z,0.70
2023-01-15T16:52:54.206Z,1.13
2023-01-15T16:55:41.031Z,1.23
2023-01-15T16:58:13.609Z,1.55
2023-01-15T17:00:51.584Z,1.63
2023-01-15T17:03:21.852Z,2.40
2023-01-15T17:08:19.500Z,1.00
2023-01-15T17:11:01.436Z,0.88
2023-01-15T17:13:40.419Z,0.80
2023-01-15T17:16:13.117Z,0.88
2023-01-15T17:18:40.632Z,1.08
2023-01-15T17:21:14.055Z,1.00
2023-01-15T17:23:42.838Z,1.38
2023-01-15T17:26:17.111Z,1.70
2023-01-15T17:28:43.982Z,1.17
2023-01-15T17:31:25.869Z,0.70
2023-01-15T17:33:52.947Z,1.02
2023-01-15T17:36:20.629Z,1.05
2023-01-15T17:38:47.575Z,1.05
2023-01-15T17:41:16.261Z,1.33
2023-01-15T17:43:43.269Z,0.80
2023-01-15T17:46:10.031Z,0.90
2023-01-15T17:48:37.077Z,0.73
2023-01-15T17:51:05.830Z,0.88
2023-01-15T17:53:32.894Z,0.95
2023-01-15T17:56:18.173Z,0.98
2023-01-15T17:59:03.596Z,0.95
2023-01-15T18:01:51.910Z,0.75
2023-01-15T18:04:48.934Z,0.95
2023-01-15T18:07:16.922Z,0.77
2023-01-15T18:09:44.094Z,0.73
2023-01-15T18:12:10.909Z,1.33
2023-01-15T18:14:37.539Z,0.85
2023-01-15T18:17:04.571Z,1.00
2023-01-15T18:19:31.371Z,1.10
2023-01-15T18:21:58.058Z,0.90
2023-01-15T18:24:24.676Z,0.85
2023-01-15T18:26:55.375Z,0.77
2023-01-15T18:29:22.266Z,1.08
2023-01-15T18:31:49.436Z,0.80
2023-01-15T18:34:16.046Z,0.80
2023-01-15T18:36:42.655Z,1.13
2023-01-15T18:39:12.613Z,1.80
2023-01-15T18:41:40.231Z,0.93
2023-01-15T18:44:31.397Z,0.77
2023-01-15T18:47:00.991Z,1.05
2023-01-15T18:49:28.664Z,1.20
2023-01-15T18:52:14.280Z,1.13
2023-01-15T18:54:40.923Z,1.10
2023-01-15T18:57:07.541Z,0.98
2023-01-15T18:59:34.183Z,0.85
2023-01-15T19:02:00.962Z,1.20
2023-01-15T19:04:27.633Z,1.05
2023-01-15T19:06:54.590Z,1.20
2023-01-15T19:09:24.011Z,0.70
2023-01-15T19:11:52.265Z,0.88
2023-01-15T19:14:38.240Z,0.70
2023-01-15T19:17:31.246Z,0.80
2023-01-15T19:19:57.916Z,0.85
2023-01-15T19:22:43.102Z,0.68
2023-01-15T19:25:09.929Z,0.90
2023-01-15T19:27:36.602Z,0.80
2023-01-15T19:30:05.091Z,0.80
2023-01-15T19:32:32.124Z,0.82
2023-01-15T19:34:59.462Z,1.02
2023-01-15T19:37:27.799Z,0.60
2023-01-15T19:39:54.850Z,1.10
2023-01-15T19:42:39.995Z,1.10
2023-01-15T19:45:25.437Z,1.13
2023-01-15T19:48:10.972Z,1.00
2023-01-15T19:50:43.088Z,0.90
2023-01-15T19:53:11.013Z,0.90
2023-01-15T19:55:39.949Z,0.90
2023-01-15T19:58:09.227Z,0.73
2023-01-15T20:00:37.781Z,1.67
2023-01-15T20:03:05.703Z,0.90
2023-01-15T20:05:32.939Z,0.90
2023-01-15T20:07:59.612Z,1.30
2023-01-15T20:10:28.230Z,0.88
2023-01-15T20:13:13.802Z,1.80
2023-01-15T20:15:43.705Z,1.67
2023-01-15T20:18:10.365Z,0.88
2023-01-15T20:20:38.167Z,0.98
2023-01-15T20:23:05.146Z,0.98
2023-01-15T20:25:31.877Z,1.30
2023-01-15T20:27:59.944Z,1.02
2023-01-15T20:30:27.570Z,0.93
2023-01-15T20:32:56.551Z,0.90
2023-01-15T20:35:33.550Z,1.08
2023-01-15T20:38:00.206Z,0.80
2023-01-15T20:40:27.573Z,0.80
2023-01-15T20:43:13.305Z,0.77
2023-01-15T20:45:40.883Z,0.80
2023-01-15T20:48:12.060Z,1.02
2023-01-15T20:51:01.158Z,0.85
2023-01-15T20:53:30.395Z,0.88
2023-01-15T20:55:57.800Z,1.38
2023-01-15T20:58:24.909Z,1.00
2023-01-15T21:00:52.996Z,1.13
2023-01-15T21:03:20.609Z,0.80
2023-01-15T21:05:47.749Z,0.60
2023-01-15T21:08:14.766Z,0.80
2023-01-15T21:10:41.728Z,2.42
2023-01-15T21:13:08.645Z,0.57
2023-01-15T21:15:35.326Z,0.70
2023-01-15T21:18:02.004Z,0.70
2023-01-15T21:20:28.786Z,0.80
2023-01-15T21:22:57.206Z,0.75
2023-01-15T21:25:23.877Z,0.80
2023-01-15T21:27:50.591Z,0.70
2023-01-15T21:30:17.432Z,0.77
2023-01-15T21:32:46.404Z,1.10
